首页
METAR-TAF:

METAR-TAF

机场 :

General Wayne Downing Peoria International Airport

皮奥里亚, 伊利诺伊州, 美国

纬度: 40-40-03N, 经度: 089-41-02W, 海拔: 201米

当前天气观测

该预报发布于23分钟前的17:47 UTC
风速7节,风向
温度 32°C
湿度 75%
气压 1011 hPa
能見度: 16.1公里
散云层高于2000英尺

METAR: KPIA 151747Z 18007KT 10SM SCT020 32/27 A2985 RMK AO2 T03220267

时间: 13:10 (18:10 UTC)

预报

该预报发布于32分钟前的17:38 UTC
预报有效从15日的 18点(UTC)到 16日的 18点(UTC)
风速9节,风向南转西南
能見度: 10公里
散云层高于1500英尺
多云层高于25000英尺
从 16日的 0400点(UTC)
风速12节,风向南转西南
能見度: 10公里
多云层高于12000英尺
短暂存在
从 16日的 04点(UTC)到 16日的 07点(UTC)
能見度: 6.4公里
阴天层高于1500英尺, 积雨云.
雷暴, 小雨, 轻雾
从 16日的 0700点(UTC)
风速8节,风向西转西北
能見度: 10公里
散云层高于2500英尺
阴天层高于5000英尺
附近有阵雨
从 16日的 1000点(UTC)
风速8节,风向西南
能見度: 10公里
散云层高于2500英尺
多云层高于12000英尺

TAF: KPIA 151738Z 1518/1618 21009KT P6SM SCT015 BKN250 FM160400 21012KT P6SM BKN120 TEMPO 1604/1607 4SM -TSRA BR OVC015CB FM160700 30008KT P6SM VCSH SCT025 OVC050 FM161000 23008KT P6SM SCT025 BKN120

超过4000个机场的气象观测和天气预报(METAR&TAF报告)。

可查询的气象台以黄色和红色小点在地图上表示。

将鼠标移到小点上方,可查看气象台名称。

然后点击查看天气观测和预报。

如需切换地图:点击带黑十字的绿色按钮放大地图;点击带横线的绿色按钮缩小地图;或者点击绿色箭头查看邻近地区的地图。


METAR-TAF: